Time,TemperatureF,DewpointF,PressureIn,WindDirection,WindDirectionDegrees,WindSpeedMPH,WindSpeedGustMPH,Humidity,HourlyPrecipIn,Conditions,Clouds,dailyrainin,SoftwareType,DateUTC
2013-05-28 00:02:00,63.0,60.0,29.57,North,355,0.0,1.0,89,0.00,,,1.33,,2013-05-28 05:02:00,
2013-05-28 00:12:00,63.0,60.0,29.57,North,355,0.0,1.0,89,0.00,,,1.33,,2013-05-28 05:12:00,
2013-05-28 00:22:00,63.0,60.0,29.58,ESE,119,0.0,1.0,89,0.00,,,1.33,,2013-05-28 05:22:00,
2013-05-28 00:33:00,63.0,59.0,29.58,NE,49,0.0,2.0,88,0.00,,,1.33,,2013-05-28 05:33:00,
2013-05-28 00:42:00,63.0,59.0,29.58,NE,49,0.0,2.0,88,0.00,,,1.33,,2013-05-28 05:42:00,
2013-05-28 00:52:00,63.0,59.0,29.58,ESE,123,0.0,3.0,87,0.00,,,1.33,,2013-05-28 05:52:00,
2013-05-28 01:02:00,63.0,60.0,29.59,SE,134,0.0,3.0,89,0.00,,,1.33,,2013-05-28 06:02:00,
2013-05-28 01:12:00,63.0,60.0,29.59,SE,134,0.0,3.0,89,0.00,,,1.33,,2013-05-28 06:12:00,
2013-05-28 01:21:00,63.0,60.0,29.59,NE,53,1.0,4.0,90,0.00,,,1.33,,2013-05-28 06:21:00,
2013-05-28 01:32:00,63.0,60.0,29.59,NE,49,0.0,4.0,89,0.00,,,1.33,,2013-05-28 06:32:00,
2013-05-28 01:42:00,63.0,60.0,29.59,NE,49,0.0,4.0,89,0.00,,,1.33,,2013-05-28 06:42:00,
2013-05-28 01:52:00,63.0,60.0,29.59,NE,35,1.0,5.0,89,0.00,,,1.33,,2013-05-28 06:52:00,
2013-05-28 02:01:00,63.0,60.0,29.60,NNW,333,1.0,5.0,90,0.00,,,1.33,,2013-05-28 07:01:00,
2013-05-28 02:11:00,63.0,60.0,29.60,NNW,333,1.0,5.0,90,0.00,,,1.33,,2013-05-28 07:11:00,
2013-05-28 02:21:00,63.0,60.0,29.60,NNE,14,2.0,7.0,91,0.00,,,1.33,,2013-05-28 07:21:00,
2013-05-28 02:32:00,63.0,61.0,29.60,North,360,2.0,6.0,92,0.00,,,1.33,,2013-05-28 07:32:00,
2013-05-28 02:42:00,63.0,61.0,29.60,North,360,2.0,6.0,92,0.00,,,1.33,,2013-05-28 07:42:00,
2013-05-28 02:52:00,63.0,61.0,29.60,NE,36,2.0,6.0,92,0.00,,,1.33,,2013-05-28 07:52:00,
2013-05-28 03:02:00,63.0,60.0,29.59,North,355,3.0,8.0,91,0.00,,,1.33,,2013-05-28 08:02:00,
2013-05-28 03:11:00,63.0,60.0,29.59,North,355,3.0,8.0,91,0.00,,,1.33,,2013-05-28 08:11:00,
2013-05-28 03:22:00,63.0,60.0,29.59,North,355,3.0,8.0,91,0.00,,,1.33,,2013-05-28 08:22:00,
2013-05-28 03:32:00,63.0,61.0,29.61,ENE,59,0.0,4.0,92,0.00,,,1.33,,2013-05-28 08:32:00,
2013-05-28 03:42:00,63.0,61.0,29.61,ENE,59,0.0,4.0,92,0.00,,,1.33,,2013-05-28 08:42:00,
2013-05-28 03:52:00,63.0,61.0,29.60,NE,34,1.0,5.0,92,0.00,,,1.33,,2013-05-28 08:52:00,
2013-05-28 04:01:00,63.0,61.0,29.61,NE,46,1.0,4.0,92,0.00,,,1.33,,2013-05-28 09:01:00,
2013-05-28 04:11:00,63.0,61.0,29.61,NE,46,1.0,4.0,92,0.00,,,1.33,,2013-05-28 09:11:00,
2013-05-28 04:21:00,63.0,61.0,29.62,NE,40,0.0,4.0,93,0.00,,,1.33,,2013-05-28 09:21:00,
2013-05-28 04:33:00,62.0,60.0,29.63,NE,40,0.0,2.0,93,0.00,,,1.33,,2013-05-28 09:33:00,
2013-05-28 04:42:00,62.0,60.0,29.63,NE,40,0.0,2.0,93,0.00,,,1.33,,2013-05-28 09:42:00,
2013-05-28 04:54:00,62.0,60.0,29.63,NNW,327,2.0,4.0,94,0.00,,,1.33,,2013-05-28 09:54:00,
2013-05-28 05:03:00,62.0,61.0,29.62,NE,37,3.0,7.0,95,0.00,,,1.33,,2013-05-28 10:03:00,
2013-05-28 05:12:00,62.0,61.0,29.62,NE,37,3.0,7.0,95,0.00,,,1.33,,2013-05-28 10:12:00,
2013-05-28 05:23:00,62.0,61.0,29.62,NNE,18,3.0,7.0,95,0.00,,,1.33,,2013-05-28 10:23:00,
2013-05-28 05:32:00,62.0,61.0,29.64,NNE,25,3.0,8.0,95,0.00,,,1.33,,2013-05-28 10:32:00,
2013-05-28 05:42:00,62.0,61.0,29.64,NNE,25,3.0,8.0,95,0.00,,,1.33,,2013-05-28 10:42:00,
2013-05-28 05:53:00,62.0,61.0,29.65,ENE,70,4.0,7.0,95,0.00,,,1.33,,2013-05-28 10:53:00,
2013-05-28 06:02:00,61.0,60.0,29.65,NE,46,2.0,8.0,95,0.00,,,1.33,,2013-05-28 11:02:00,
2013-05-28 06:11:00,61.0,60.0,29.65,NE,46,2.0,8.0,95,0.00,,,1.33,,2013-05-28 11:11:00,
2013-05-28 06:22:00,61.0,60.0,29.64,NE,49,1.0,7.0,95,0.00,,,1.33,,2013-05-28 11:22:00,
2013-05-28 06:32:00,61.0,60.0,29.64,NE,38,1.0,5.0,95,0.00,,,1.33,,2013-05-28 11:32:00,
2013-05-28 06:42:00,61.0,60.0,29.64,NE,38,1.0,5.0,95,0.00,,,1.33,,2013-05-28 11:42:00,
2013-05-28 06:52:00,61.0,60.0,29.65,North,360,2.0,7.0,96,0.00,,,1.33,,2013-05-28 11:52:00,
2013-05-28 07:01:00,61.0,60.0,29.65,NE,51,3.0,8.0,96,0.00,,,1.33,,2013-05-28 12:01:00,
2013-05-28 07:11:00,61.0,60.0,29.65,NE,51,3.0,8.0,96,0.00,,,1.33,,2013-05-28 12:11:00,
2013-05-28 07:21:00,61.0,60.0,29.65,NNE,31,0.0,3.0,96,0.00,,,1.33,,2013-05-28 12:21:00,
2013-05-28 07:32:00,61.0,60.0,29.65,East,85,1.0,6.0,96,0.00,,,1.33,,2013-05-28 12:32:00,
2013-05-28 07:42:00,61.0,60.0,29.65,East,85,1.0,6.0,96,0.00,,,1.33,,2013-05-28 12:42:00,
2013-05-28 07:52:00,61.0,60.0,29.64,NNE,26,1.0,4.0,96,0.00,,,1.33,,2013-05-28 12:52:00,
2013-05-28 08:01:00,62.0,61.0,29.62,NE,38,2.0,6.0,95,0.00,,,1.18,,2013-05-28 13:01:00,
2013-05-28 08:11:00,62.0,61.0,29.62,NE,38,2.0,6.0,95,0.00,,,1.18,,2013-05-28 13:11:00,
2013-05-28 08:21:00,63.0,61.0,29.62,NNE,15,2.0,6.0,93,0.00,,,1.18,,2013-05-28 13:21:00,
2013-05-28 08:32:00,63.0,60.0,29.62,NNE,23,1.0,4.0,91,0.00,,,1.18,,2013-05-28 13:32:00,
2013-05-28 08:42:00,63.0,60.0,29.62,NNE,23,1.0,4.0,91,0.00,,,1.18,,2013-05-28 13:42:00,
2013-05-28 08:52:00,64.0,60.0,29.61,NNE,26,3.0,7.0,88,0.00,,,1.18,,2013-05-28 13:52:00,
2013-05-28 09:01:00,66.0,62.0,29.61,ENE,60,1.0,9.0,86,0.00,,,1.18,,2013-05-28 14:01:00,
2013-05-28 09:11:00,66.0,62.0,29.61,ENE,60,1.0,9.0,86,0.00,,,1.18,,2013-05-28 14:11:00,
2013-05-28 09:21:00,67.0,62.0,29.61,NNE,19,1.0,5.0,83,0.00,,,1.18,,2013-05-28 14:21:00,
2013-05-28 09:32:00,68.0,63.0,29.61,South,171,0.0,6.0,83,0.00,,,1.18,,2013-05-28 14:32:00,
2013-05-28 09:42:00,68.0,63.0,29.61,South,171,0.0,6.0,83,0.00,,,1.18,,2013-05-28 14:42:00,
2013-05-28 09:52:00,68.0,62.0,29.61,East,98,1.0,5.0,82,0.00,,,1.18,,2013-05-28 14:52:00,
2013-05-28 10:01:00,68.0,62.0,29.61,East,98,1.0,5.0,82,0.00,,,1.18,,2013-05-28 15:01:00,
2013-05-28 10:11:00,68.0,62.0,29.61,East,98,1.0,5.0,82,0.00,,,1.18,,2013-05-28 15:11:00,
2013-05-28 10:21:00,69.0,63.0,29.62,ESE,102,2.0,6.0,81,0.00,,,1.18,,2013-05-28 15:21:00,
2013-05-28 10:32:00,69.0,63.0,29.63,East,88,0.0,5.0,82,0.00,,,1.18,,2013-05-28 15:32:00,
2013-05-28 10:43:00,69.0,63.0,29.63,East,88,0.0,5.0,82,0.00,,,1.18,,2013-05-28 15:43:00,
2013-05-28 10:53:00,70.0,63.0,29.63,SSW,193,3.0,9.0,79,0.00,,,1.18,,2013-05-28 15:53:00,
2013-05-28 11:03:00,71.0,64.0,29.63,SE,144,1.0,7.0,79,0.00,,,1.18,,2013-05-28 16:03:00,
2013-05-28 11:12:00,71.0,64.0,29.63,SE,144,1.0,7.0,79,0.00,,,1.18,,2013-05-28 16:12:00,
2013-05-28 11:22:00,71.0,64.0,29.62,SSE,154,0.0,4.0,78,0.00,,,1.18,,2013-05-28 16:22:00,
2013-05-28 11:33:00,70.0,64.0,29.61,ENE,62,0.0,6.0,80,0.00,,,1.18,,2013-05-28 16:33:00,
2013-05-28 11:42:00,70.0,64.0,29.61,ENE,62,0.0,6.0,80,0.00,,,1.18,,2013-05-28 16:42:00,
2013-05-28 11:52:00,70.0,64.0,29.62,SSE,158,1.0,4.0,82,0.00,,,1.18,,2013-05-28 16:52:00,
2013-05-28 12:02:00,71.0,65.0,29.63,East,86,1.0,8.0,82,0.00,,,1.18,,2013-05-28 17:02:00,
2013-05-28 12:12:00,71.0,65.0,29.63,East,86,1.0,8.0,82,0.00,,,1.18,,2013-05-28 17:12:00,
2013-05-28 12:22:00,71.0,65.0,29.63,East,86,1.0,8.0,82,0.00,,,1.18,,2013-05-28 17:22:00,
2013-05-28 12:32:00,73.0,65.0,29.64,SSE,160,0.0,4.0,75,0.00,,,1.18,,2013-05-28 17:32:00,
2013-05-28 12:42:00,72.0,64.0,29.63,NE,40,1.0,8.0,76,0.00,,,1.18,,2013-05-28 17:42:00,
2013-05-28 12:52:00,72.0,64.0,29.63,NE,40,1.0,8.0,76,0.00,,,1.18,,2013-05-28 17:52:00,
2013-05-28 13:01:00,72.0,64.0,29.64,North,355,2.0,6.0,77,0.00,,,1.18,,2013-05-28 18:01:00,
2013-05-28 13:11:00,72.0,64.0,29.64,North,355,2.0,6.0,77,0.00,,,1.18,,2013-05-28 18:11:00,
2013-05-28 13:21:00,74.0,66.0,29.64,North,360,2.0,6.0,75,0.00,,,1.18,,2013-05-28 18:21:00,
2013-05-28 13:32:00,74.0,62.0,29.64,ENE,77,3.0,8.0,67,0.00,,,1.18,,2013-05-28 18:32:00,
2013-05-28 13:42:00,74.0,62.0,29.64,ENE,77,3.0,8.0,67,0.00,,,1.18,,2013-05-28 18:42:00,
2013-05-28 13:52:00,76.0,65.0,29.64,ENE,62,2.0,6.0,68,0.00,,,1.18,,2013-05-28 18:52:00,
2013-05-28 14:01:00,76.0,63.0,29.65,ENE,58,2.0,5.0,64,0.00,,,1.18,,2013-05-28 19:01:00,
2013-05-28 14:11:00,76.0,63.0,29.65,ENE,58,2.0,5.0,64,0.00,,,1.18,,2013-05-28 19:11:00,
2013-05-28 14:21:00,77.0,62.0,29.65,East,85,2.0,10.0,60,0.00,,,1.18,,2013-05-28 19:21:00,
2013-05-28 14:32:00,77.0,63.0,29.65,NNE,15,4.0,9.0,62,0.00,,,1.18,,2013-05-28 19:32:00,
2013-05-28 14:42:00,77.0,63.0,29.65,NNE,15,4.0,9.0,62,0.00,,,1.18,,2013-05-28 19:42:00,
2013-05-28 14:52:00,77.0,63.0,29.64,ESE,102,2.0,6.0,61,0.00,,,1.18,,2013-05-28 19:52:00,
2013-05-28 15:01:00,78.0,62.0,29.62,North,5,3.0,9.0,58,0.00,,,1.18,,2013-05-28 20:01:00,
2013-05-28 15:11:00,78.0,62.0,29.62,North,5,3.0,9.0,58,0.00,,,1.18,,2013-05-28 20:11:00,
2013-05-28 15:22:00,78.0,63.0,29.61,NE,44,4.0,9.0,61,0.00,,,1.18,,2013-05-28 20:22:00,
2013-05-28 15:32:00,78.0,63.0,29.61,NE,44,4.0,9.0,61,0.00,,,1.18,,2013-05-28 20:32:00,
2013-05-28 15:42:00,78.0,63.0,29.61,NE,44,4.0,9.0,61,0.00,,,1.18,,2013-05-28 20:42:00,
2013-05-28 15:52:00,79.0,62.0,29.61,NNE,30,4.0,13.0,56,0.00,,,1.18,,2013-05-28 20:52:00,
2013-05-28 16:01:00,79.0,62.0,29.61,NNE,32,2.0,10.0,56,0.00,,,1.18,,2013-05-28 21:01:00,
2013-05-28 16:11:00,79.0,62.0,29.61,NNE,32,2.0,10.0,56,0.00,,,1.18,,2013-05-28 21:11:00,
2013-05-28 16:21:00,79.0,62.0,29.61,NE,36,4.0,13.0,56,0.00,,,1.18,,2013-05-28 21:21:00,
2013-05-28 16:33:00,80.0,63.0,29.60,NE,40,3.0,10.0,56,0.00,,,1.18,,2013-05-28 21:33:00,
2013-05-28 16:43:00,80.0,63.0,29.60,NE,40,3.0,10.0,56,0.00,,,1.18,,2013-05-28 21:43:00,
2013-05-28 16:53:00,80.0,65.0,29.60,NE,38,2.0,8.0,60,0.00,,,1.18,,2013-05-28 21:53:00,
2013-05-28 17:02:00,80.0,64.0,29.59,NE,46,3.0,9.0,58,0.00,,,1.18,,2013-05-28 22:02:00,
2013-05-28 17:12:00,80.0,64.0,29.59,NE,46,3.0,9.0,58,0.00,,,1.18,,2013-05-28 22:12:00,
2013-05-28 17:22:00,80.0,64.0,29.59,NE,55,2.0,9.0,59,0.00,,,1.18,,2013-05-28 22:22:00,
2013-05-28 17:32:00,80.0,64.0,29.59,NE,45,2.0,12.0,59,0.00,,,1.18,,2013-05-28 22:32:00,
2013-05-28 17:42:00,79.0,64.0,29.58,East,91,2.0,8.0,60,0.00,,,1.18,,2013-05-28 22:42:00,
2013-05-28 17:52:00,79.0,64.0,29.58,East,91,2.0,8.0,60,0.00,,,1.18,,2013-05-28 22:52:00,
2013-05-28 18:02:00,81.0,66.0,29.57,East,101,1.0,5.0,60,0.00,,,1.18,,2013-05-28 23:02:00,
2013-05-28 18:11:00,81.0,66.0,29.57,East,101,1.0,5.0,60,0.00,,,1.18,,2013-05-28 23:11:00,
2013-05-28 18:22:00,80.0,64.0,29.56,ENE,72,2.0,10.0,59,0.00,,,1.18,,2013-05-28 23:22:00,
2013-05-28 18:32:00,80.0,64.0,29.55,NE,46,3.0,9.0,59,0.00,,,1.18,,2013-05-28 23:32:00,
2013-05-28 18:42:00,80.0,64.0,29.55,NE,46,3.0,9.0,59,0.00,,,1.18,,2013-05-28 23:42:00,
2013-05-28 18:52:00,80.0,64.0,29.54,NE,46,1.0,7.0,59,0.00,,,1.18,,2013-05-28 23:52:00,
2013-05-28 19:02:00,80.0,63.0,29.54,NE,53,3.0,10.0,57,0.00,,,1.18,,2013-05-29 00:02:00,
2013-05-28 19:11:00,80.0,63.0,29.54,NE,53,3.0,10.0,57,0.00,,,1.18,,2013-05-29 00:11:00,
2013-05-28 19:21:00,79.0,63.0,29.55,NE,37,3.0,11.0,59,0.00,,,1.18,,2013-05-29 00:21:00,
2013-05-28 19:32:00,78.0,63.0,29.54,ENE,71,2.0,9.0,61,0.00,,,1.18,,2013-05-29 00:32:00,
2013-05-28 19:42:00,78.0,63.0,29.54,ENE,71,2.0,9.0,61,0.00,,,1.18,,2013-05-29 00:42:00,
2013-05-28 19:52:00,78.0,63.0,29.53,NNE,30,3.0,8.0,61,0.00,,,1.18,,2013-05-29 00:52:00,
2013-05-28 20:01:00,78.0,64.0,29.53,ENE,70,2.0,9.0,62,0.00,,,1.17,,2013-05-29 01:01:00,
2013-05-28 20:11:00,78.0,64.0,29.53,ENE,70,2.0,9.0,62,0.00,,,1.17,,2013-05-29 01:11:00,
2013-05-28 20:22:00,78.0,64.0,29.54,NE,42,2.0,8.0,63,0.00,,,1.17,,2013-05-29 01:22:00,
2013-05-28 20:32:00,77.0,64.0,29.54,ENE,69,3.0,7.0,64,0.00,,,1.17,,2013-05-29 01:32:00,
2013-05-28 20:42:00,77.0,64.0,29.54,ENE,69,3.0,7.0,64,0.00,,,1.17,,2013-05-29 01:42:00,
2013-05-28 20:52:00,76.0,64.0,29.55,NE,43,1.0,6.0,67,0.00,,,1.17,,2013-05-29 01:52:00,
2013-05-28 21:02:00,76.0,65.0,29.56,East,93,3.0,9.0,70,0.00,,,0.01,,2013-05-29 02:02:00,
2013-05-28 21:12:00,76.0,65.0,29.56,East,93,3.0,9.0,70,0.00,,,0.01,,2013-05-29 02:12:00,
2013-05-28 21:21:00,76.0,67.0,29.57,ESE,102,3.0,10.0,73,0.00,,,0.01,,2013-05-29 02:21:00,
2013-05-28 21:32:00,74.0,65.0,29.57,NE,55,2.0,9.0,74,0.00,,,0.01,,2013-05-29 02:32:00,
2013-05-28 21:42:00,71.0,58.0,29.58,ENE,57,1.0,11.0,64,0.00,,,0.01,,2013-05-29 02:42:00,
2013-05-28 21:51:00,71.0,58.0,29.58,ENE,57,1.0,11.0,64,0.00,,,0.01,,2013-05-29 02:51:00,
2013-05-28 22:02:00,70.0,59.0,29.58,SSE,153,1.0,6.0,69,0.00,,,0.00,,2013-05-29 03:02:00,
2013-05-28 22:12:00,70.0,59.0,29.58,SSE,153,1.0,6.0,69,0.00,,,0.00,,2013-05-29 03:12:00,
2013-05-28 22:21:00,69.0,59.0,29.59,SSE,147,2.0,7.0,71,0.00,,,0.00,,2013-05-29 03:21:00,
2013-05-28 22:33:00,67.0,58.0,29.59,East,97,1.0,6.0,73,0.00,,,0.00,,2013-05-29 03:33:00,
2013-05-28 22:43:00,67.0,58.0,29.59,East,97,1.0,6.0,73,0.00,,,0.00,,2013-05-29 03:43:00,
2013-05-28 22:53:00,67.0,58.0,29.60,South,169,1.0,4.0,72,0.00,,,0.00,,2013-05-29 03:53:00,
2013-05-28 23:02:00,67.0,59.0,29.60,SSE,161,0.0,3.0,75,0.00,,,0.00,,2013-05-29 04:02:00,
2013-05-28 23:13:00,67.0,59.0,29.60,SSE,161,0.0,3.0,75,0.00,,,0.00,,2013-05-29 04:13:00,
2013-05-28 23:23:00,66.0,59.0,29.60,East,84,0.0,4.0,77,0.00,,,0.00,,2013-05-29 04:23:00,
2013-05-28 23:33:00,66.0,59.0,29.59,East,86,0.0,4.0,78,0.00,,,0.00,,2013-05-29 04:33:00,
2013-05-28 23:42:00,66.0,59.0,29.59,East,86,0.0,4.0,78,0.00,,,0.00,,2013-05-29 04:42:00,
2013-05-28 23:52:00,65.0,59.0,29.58,East,82,1.0,6.0,80,0.00,,,0.00,,2013-05-29 04:52:00,